Garfield County Regional Airport
KRIL : rendu visible

Aérodrome :











RETROUVEZ-NOUS SUR...

 
LOGIN :

S'inscrire | Disclaimer

   EN    FR    IT 

 









Légende :    VFR   VFR Marginal   IFR   IFR Intensif   IFR Très Intensif
Visi : 
Plafond : 
>= 8 km
>= 3000ft
5 à 8 km
1000 à 3000 ft
1500m à 5 km
500 à 1000 ft
800 à 1500m
200 à 500 ft
< 800m
< 200 ft
Symboles :   Orages  Brouillard  Fortes neiges  Fortes précipitations  Vent > 20 kt






- Altitude de l'aérodrome : 5548 ft


KRIL - Garfield County Regional

DERNIER METAR :
  • 241453Z AUTO 26018G26KT 10SM FEW042 BKN070 OVC090 01/M08 A3000 RMK AO2 PK WND 33035/1412 WSHFT 1418 SNE23 SLP167 P0000 60000 T00111083 53008

METARs EXPIRÉS :
  • 241438Z AUTO 25020G28KT 10SM FEW033 BKN047 OVC075 01/M06 A3000 RMK AO2 PK WND 33035/1412 WSHFT 1418 SNE23 P0000 T00111061
  • 241353Z AUTO 7SM -SN OVC040 M03/M06 A2996 RMK AO2 SNB48 SLP159 P0000 T10281056
  • 241253Z AUTO 00000KT 10SM OVC090 M04/M07 A2995 RMK AO2 SLP152 T10391067

TAF KRIL
Valide du 24 à 14h jusqu'au 25 à 12h UTC


241353Z 2414/2512 22005KT P6SM VCSH SCT024 OVC060
TEMPO 2414/2416 VRB20G30KT 2SM -SHSN BR OVC017
FM241600 29019G26KT P6SM VCSH SCT025 BKN050
FM241800 29021G27KT P6SM FEW040 OVC060
FM250400 29015G23KT P6SM VCSH SCT025 BKN070
FM250600 29012KT P6SM SCT025



MET'MAP, la Météo Aéronautique d'un coup d'oeil ! - Copyright ORBIFLY Décembre 2007 - Disclaimer

ORBIFLY MET'MAP TEAM :

Programmation & Développement : Alexandra Zaïnal
Sur une idée originale de : Baudouin d'Aumeries
Assistance à la programmation : Marc-Olivier Méhu
Soutien technique & logistique : Manuel Goepfert

Contact : metmap@orbifly.com




SOURCES & CREDITS :

   NOAA       Earth
Advisory